sensor_id;sensor_type;location;lat;lon;timestamp;temperature;humidity
42037;DHT22;30340;52.004;5.908;2023-03-13T00:00:47;10.50;88.90
42037;DHT22;30340;52.004;5.908;2023-03-13T00:03:13;10.50;89.20
42037;DHT22;30340;52.004;5.908;2023-03-13T00:05:38;10.50;89.40
42037;DHT22;30340;52.004;5.908;2023-03-13T00:08:03;10.50;89.70
42037;DHT22;30340;52.004;5.908;2023-03-13T00:10:29;10.50;89.80
42037;DHT22;30340;52.004;5.908;2023-03-13T00:12:54;10.50;89.90
42037;DHT22;30340;52.004;5.908;2023-03-13T00:15:20;10.50;90.10
42037;DHT22;30340;52.004;5.908;2023-03-13T00:17:45;10.50;90.10
42037;DHT22;30340;52.004;5.908;2023-03-13T00:20:11;10.40;90.10
42037;DHT22;30340;52.004;5.908;2023-03-13T00:22:36;10.50;90.20
42037;DHT22;30340;52.004;5.908;2023-03-13T00:25:02;10.50;90.20
42037;DHT22;30340;52.004;5.908;2023-03-13T00:27:31;10.50;90.20
42037;DHT22;30340;52.004;5.908;2023-03-13T00:29:56;10.50;90.10
42037;DHT22;30340;52.004;5.908;2023-03-13T00:32:22;10.50;90.10
42037;DHT22;30340;52.004;5.908;2023-03-13T00:34:47;10.50;90.10
42037;DHT22;30340;52.004;5.908;2023-03-13T00:37:12;10.50;90.20
42037;DHT22;30340;52.004;5.908;2023-03-13T00:39:38;10.50;90.40
42037;DHT22;30340;52.004;5.908;2023-03-13T00:42:04;10.50;90.40
42037;DHT22;30340;52.004;5.908;2023-03-13T00:44:29;10.50;90.40
42037;DHT22;30340;52.004;5.908;2023-03-13T00:46:55;10.50;90.50
42037;DHT22;30340;52.004;5.908;2023-03-13T00:49:20;10.50;90.50
42037;DHT22;30340;52.004;5.908;2023-03-13T00:51:46;10.50;90.60
42037;DHT22;30340;52.004;5.908;2023-03-13T00:54:11;10.50;90.50
42037;DHT22;30340;52.004;5.908;2023-03-13T00:56:37;10.50;90.60
42037;DHT22;30340;52.004;5.908;2023-03-13T00:59:02;10.50;90.70
42037;DHT22;30340;52.004;5.908;2023-03-13T01:01:32;10.40;90.70
42037;DHT22;30340;52.004;5.908;2023-03-13T01:03:59;10.40;90.80
42037;DHT22;30340;52.004;5.908;2023-03-13T01:06:26;10.40;90.90
42037;DHT22;30340;52.004;5.908;2023-03-13T01:08:52;10.40;91.00
42037;DHT22;30340;52.004;5.908;2023-03-13T01:11:22;10.30;91.10
42037;DHT22;30340;52.004;5.908;2023-03-13T01:13:47;10.30;91.20
42037;DHT22;30340;52.004;5.908;2023-03-13T01:16:14;10.30;91.40
42037;DHT22;30340;52.004;5.908;2023-03-13T01:18:42;10.30;91.50
42037;DHT22;30340;52.004;5.908;2023-03-13T01:21:08;10.30;91.50
42037;DHT22;30340;52.004;5.908;2023-03-13T01:23:33;10.30;91.80
42037;DHT22;30340;52.004;5.908;2023-03-13T01:25:59;10.30;91.80
42037;DHT22;30340;52.004;5.908;2023-03-13T01:28:25;10.30;91.90
42037;DHT22;30340;52.004;5.908;2023-03-13T01:30:51;10.30;92.10
42037;DHT22;30340;52.004;5.908;2023-03-13T01:33:16;10.30;92.20
42037;DHT22;30340;52.004;5.908;2023-03-13T01:35:42;10.30;92.10
42037;DHT22;30340;52.004;5.908;2023-03-13T01:38:07;10.30;92.20
42037;DHT22;30340;52.004;5.908;2023-03-13T01:40:46;10.30;92.30
42037;DHT22;30340;52.004;5.908;2023-03-13T01:43:22;10.30;92.30
42037;DHT22;30340;52.004;5.908;2023-03-13T01:48:28;10.30;92.70
42037;DHT22;30340;52.004;5.908;2023-03-13T01:50:55;10.40;92.70
42037;DHT22;30340;52.004;5.908;2023-03-13T01:53:22;10.40;92.70
42037;DHT22;30340;52.004;5.908;2023-03-13T01:55:49;10.40;92.80
42037;DHT22;30340;52.004;5.908;2023-03-13T01:58:15;10.40;92.90
42037;DHT22;30340;52.004;5.908;2023-03-13T02:00:41;10.40;92.90
42037;DHT22;30340;52.004;5.908;2023-03-13T02:03:10;10.40;93.00
42037;DHT22;30340;52.004;5.908;2023-03-13T02:05:36;10.40;93.10
42037;DHT22;30340;52.004;5.908;2023-03-13T02:08:06;10.50;93.10
42037;DHT22;30340;52.004;5.908;2023-03-13T02:10:33;10.50;93.10
42037;DHT22;30340;52.004;5.908;2023-03-13T02:13:00;10.50;93.20
42037;DHT22;30340;52.004;5.908;2023-03-13T02:15:26;10.50;93.30
42037;DHT22;30340;52.004;5.908;2023-03-13T02:17:52;10.50;93.40
42037;DHT22;30340;52.004;5.908;2023-03-13T02:20:18;10.60;93.50
42037;DHT22;30340;52.004;5.908;2023-03-13T02:27:57;10.60;93.90
42037;DHT22;30340;52.004;5.908;2023-03-13T02:30:22;10.60;94.00
42037;DHT22;30340;52.004;5.908;2023-03-13T02:32:48;10.70;94.00
42037;DHT22;30340;52.004;5.908;2023-03-13T02:35:15;10.70;94.00
42037;DHT22;30340;52.004;5.908;2023-03-13T02:37:41;10.70;94.00
42037;DHT22;30340;52.004;5.908;2023-03-13T02:40:08;10.70;93.90
42037;DHT22;30340;52.004;5.908;2023-03-13T02:42:35;10.80;93.90
42037;DHT22;30340;52.004;5.908;2023-03-13T02:45:02;10.80;94.10
42037;DHT22;30340;52.004;5.908;2023-03-13T02:47:27;10.90;94.00
42037;DHT22;30340;52.004;5.908;2023-03-13T02:49:53;10.90;94.00
42037;DHT22;30340;52.004;5.908;2023-03-13T02:52:20;10.90;94.00
42037;DHT22;30340;52.004;5.908;2023-03-13T02:54:49;10.90;94.10
42037;DHT22;30340;52.004;5.908;2023-03-13T02:57:15;11.00;94.20
42037;DHT22;30340;52.004;5.908;2023-03-13T02:59:41;11.00;94.60
42037;DHT22;30340;52.004;5.908;2023-03-13T03:02:06;11.00;94.30
42037;DHT22;30340;52.004;5.908;2023-03-13T03:04:32;11.00;94.50
42037;DHT22;30340;52.004;5.908;2023-03-13T03:06:57;11.10;94.50
42037;DHT22;30340;52.004;5.908;2023-03-13T03:09:23;11.10;94.40
42037;DHT22;30340;52.004;5.908;2023-03-13T03:11:48;11.10;94.30
42037;DHT22;30340;52.004;5.908;2023-03-13T03:14:14;11.20;94.30
42037;DHT22;30340;52.004;5.908;2023-03-13T03:16:40;11.20;94.30
42037;DHT22;30340;52.004;5.908;2023-03-13T03:19:06;11.20;94.30
42037;DHT22;30340;52.004;5.908;2023-03-13T03:21:32;11.30;94.50
42037;DHT22;30340;52.004;5.908;2023-03-13T03:23:57;11.30;94.40
42037;DHT22;30340;52.004;5.908;2023-03-13T03:26:23;11.30;94.40
42037;DHT22;30340;52.004;5.908;2023-03-13T03:28:49;11.40;94.30
42037;DHT22;30340;52.004;5.908;2023-03-13T03:31:15;11.40;94.30
42037;DHT22;30340;52.004;5.908;2023-03-13T03:33:41;11.40;94.30
42037;DHT22;30340;52.004;5.908;2023-03-13T03:36:08;11.50;94.20
42037;DHT22;30340;52.004;5.908;2023-03-13T03:38:34;11.50;94.20
42037;DHT22;30340;52.004;5.908;2023-03-13T03:41:00;11.50;94.30
42037;DHT22;30340;52.004;5.908;2023-03-13T03:43:25;11.60;94.30
42037;DHT22;30340;52.004;5.908;2023-03-13T03:45:51;11.60;94.40
42037;DHT22;30340;52.004;5.908;2023-03-13T03:48:16;11.60;94.40
42037;DHT22;30340;52.004;5.908;2023-03-13T03:50:42;11.70;94.40
42037;DHT22;30340;52.004;5.908;2023-03-13T03:53:07;11.70;94.40
42037;DHT22;30340;52.004;5.908;2023-03-13T03:55:33;11.70;94.40
42037;DHT22;30340;52.004;5.908;2023-03-13T03:57:59;11.80;94.40
42037;DHT22;30340;52.004;5.908;2023-03-13T04:00:24;11.80;94.50
42037;DHT22;30340;52.004;5.908;2023-03-13T04:02:52;11.80;94.40
42037;DHT22;30340;52.004;5.908;2023-03-13T04:05:17;11.90;94.50
42037;DHT22;30340;52.004;5.908;2023-03-13T04:07:43;11.80;94.60
42037;DHT22;30340;52.004;5.908;2023-03-13T04:10:08;11.90;94.60
42037;DHT22;30340;52.004;5.908;2023-03-13T04:12:34;11.90;94.70
42037;DHT22;30340;52.004;5.908;2023-03-13T04:14:59;11.90;94.80
42037;DHT22;30340;52.004;5.908;2023-03-13T04:17:25;11.90;94.80
42037;DHT22;30340;52.004;5.908;2023-03-13T04:19:51;11.90;94.70
42037;DHT22;30340;52.004;5.908;2023-03-13T04:22:16;12.00;94.80
42037;DHT22;30340;52.004;5.908;2023-03-13T04:24:42;12.00;94.80
42037;DHT22;30340;52.004;5.908;2023-03-13T04:27:07;12.00;94.80
42037;DHT22;30340;52.004;5.908;2023-03-13T04:29:33;12.00;94.70
42037;DHT22;30340;52.004;5.908;2023-03-13T04:31:59;12.10;94.70
42037;DHT22;30340;52.004;5.908;2023-03-13T04:34:24;12.10;95.00
42037;DHT22;30340;52.004;5.908;2023-03-13T04:36:50;12.10;94.70
42037;DHT22;30340;52.004;5.908;2023-03-13T04:39:15;12.10;94.80
42037;DHT22;30340;52.004;5.908;2023-03-13T04:41:41;12.10;94.80
42037;DHT22;30340;52.004;5.908;2023-03-13T04:44:06;12.20;94.80
42037;DHT22;30340;52.004;5.908;2023-03-13T04:46:32;12.20;94.80
42037;DHT22;30340;52.004;5.908;2023-03-13T04:48:57;12.20;95.20
42037;DHT22;30340;52.004;5.908;2023-03-13T04:51:23;12.20;95.00
42037;DHT22;30340;52.004;5.908;2023-03-13T04:53:49;12.30;95.20
42037;DHT22;30340;52.004;5.908;2023-03-13T04:56:24;12.30;95.20
42037;DHT22;30340;52.004;5.908;2023-03-13T04:58:50;12.30;95.10
42037;DHT22;30340;52.004;5.908;2023-03-13T05:01:15;12.40;95.10
42037;DHT22;30340;52.004;5.908;2023-03-13T05:03:41;12.40;95.00
42037;DHT22;30340;52.004;5.908;2023-03-13T05:06:06;12.40;94.90
42037;DHT22;30340;52.004;5.908;2023-03-13T05:08:32;12.40;94.80
42037;DHT22;30340;52.004;5.908;2023-03-13T05:10:57;12.50;94.80
42037;DHT22;30340;52.004;5.908;2023-03-13T05:13:23;12.50;94.80
42037;DHT22;30340;52.004;5.908;2023-03-13T05:15:48;12.50;94.80
42037;DHT22;30340;52.004;5.908;2023-03-13T05:18:13;12.50;94.70
42037;DHT22;30340;52.004;5.908;2023-03-13T05:20:39;12.60;94.70
42037;DHT22;30340;52.004;5.908;2023-03-13T05:23:05;12.60;94.70
42037;DHT22;30340;52.004;5.908;2023-03-13T05:25:30;12.60;94.60
42037;DHT22;30340;52.004;5.908;2023-03-13T05:27:55;12.60;94.60
42037;DHT22;30340;52.004;5.908;2023-03-13T05:30:21;12.60;94.60
42037;DHT22;30340;52.004;5.908;2023-03-13T05:32:46;12.60;94.60
42037;DHT22;30340;52.004;5.908;2023-03-13T05:35:12;12.70;94.70
42037;DHT22;30340;52.004;5.908;2023-03-13T05:37:37;12.70;94.70
42037;DHT22;30340;52.004;5.908;2023-03-13T05:40:03;12.70;94.80
42037;DHT22;30340;52.004;5.908;2023-03-13T05:42:28;12.70;94.70
42037;DHT22;30340;52.004;5.908;2023-03-13T05:44:54;12.70;94.80
42037;DHT22;30340;52.004;5.908;2023-03-13T05:47:20;12.70;94.70
42037;DHT22;30340;52.004;5.908;2023-03-13T05:49:46;12.80;94.70
42037;DHT22;30340;52.004;5.908;2023-03-13T05:52:11;12.80;94.60
42037;DHT22;30340;52.004;5.908;2023-03-13T05:54:37;12.80;94.60
42037;DHT22;30340;52.004;5.908;2023-03-13T05:57:02;12.80;94.60
42037;DHT22;30340;52.004;5.908;2023-03-13T05:59:28;12.80;94.60
42037;DHT22;30340;52.004;5.908;2023-03-13T06:01:53;12.80;94.60
42037;DHT22;30340;52.004;5.908;2023-03-13T06:04:19;12.90;94.60
42037;DHT22;30340;52.004;5.908;2023-03-13T06:06:45;12.90;94.50
42037;DHT22;30340;52.004;5.908;2023-03-13T06:09:10;12.90;94.50
42037;DHT22;30340;52.004;5.908;2023-03-13T06:11:36;12.90;94.40
42037;DHT22;30340;52.004;5.908;2023-03-13T06:14:01;12.90;94.40
42037;DHT22;30340;52.004;5.908;2023-03-13T06:16:27;13.00;94.30
42037;DHT22;30340;52.004;5.908;2023-03-13T06:18:52;13.00;94.30
42037;DHT22;30340;52.004;5.908;2023-03-13T06:21:18;13.00;94.30
42037;DHT22;30340;52.004;5.908;2023-03-13T06:23:44;13.00;94.30
42037;DHT22;30340;52.004;5.908;2023-03-13T06:26:09;13.00;94.30
42037;DHT22;30340;52.004;5.908;2023-03-13T06:28:35;13.00;94.20
42037;DHT22;30340;52.004;5.908;2023-03-13T06:31:04;13.00;94.10
42037;DHT22;30340;52.004;5.908;2023-03-13T06:33:29;13.00;94.10
42037;DHT22;30340;52.004;5.908;2023-03-13T06:35:55;13.10;94.10
42037;DHT22;30340;52.004;5.908;2023-03-13T06:38:21;13.10;94.10
42037;DHT22;30340;52.004;5.908;2023-03-13T06:40:47;13.10;94.00
42037;DHT22;30340;52.004;5.908;2023-03-13T06:43:12;13.10;94.00
42037;DHT22;30340;52.004;5.908;2023-03-13T06:45:38;13.10;94.00
42037;DHT22;30340;52.004;5.908;2023-03-13T06:48:03;13.10;93.90
42037;DHT22;30340;52.004;5.908;2023-03-13T06:50:29;13.10;93.80
42037;DHT22;30340;52.004;5.908;2023-03-13T06:52:54;13.20;93.80
42037;DHT22;30340;52.004;5.908;2023-03-13T06:55:22;13.20;93.80
42037;DHT22;30340;52.004;5.908;2023-03-13T06:57:51;13.20;93.70
42037;DHT22;30340;52.004;5.908;2023-03-13T07:00:16;13.20;93.90
42037;DHT22;30340;52.004;5.908;2023-03-13T07:02:42;13.30;93.50
42037;DHT22;30340;52.004;5.908;2023-03-13T07:05:08;13.30;93.40
42037;DHT22;30340;52.004;5.908;2023-03-13T07:07:33;13.30;93.30
42037;DHT22;30340;52.004;5.908;2023-03-13T07:09:59;13.30;93.20
42037;DHT22;30340;52.004;5.908;2023-03-13T07:12:25;13.40;93.20
42037;DHT22;30340;52.004;5.908;2023-03-13T07:14:50;13.40;93.10
42037;DHT22;30340;52.004;5.908;2023-03-13T07:17:16;13.40;93.00
42037;DHT22;30340;52.004;5.908;2023-03-13T07:19:41;13.40;92.90
42037;DHT22;30340;52.004;5.908;2023-03-13T07:22:06;13.40;92.80
42037;DHT22;30340;52.004;5.908;2023-03-13T07:24:32;13.50;92.70
42037;DHT22;30340;52.004;5.908;2023-03-13T07:26:57;13.50;92.70
42037;DHT22;30340;52.004;5.908;2023-03-13T07:29:23;13.50;92.60
42037;DHT22;30340;52.004;5.908;2023-03-13T07:31:49;13.50;92.60
42037;DHT22;30340;52.004;5.908;2023-03-13T07:34:14;13.50;92.50
42037;DHT22;30340;52.004;5.908;2023-03-13T07:36:40;13.60;92.50
42037;DHT22;30340;52.004;5.908;2023-03-13T07:39:06;13.60;92.40
42037;DHT22;30340;52.004;5.908;2023-03-13T07:41:32;13.60;92.30
42037;DHT22;30340;52.004;5.908;2023-03-13T07:43:57;13.60;92.30
42037;DHT22;30340;52.004;5.908;2023-03-13T07:46:23;13.70;92.30
42037;DHT22;30340;52.004;5.908;2023-03-13T07:48:48;13.70;92.20
42037;DHT22;30340;52.004;5.908;2023-03-13T07:51:15;13.70;92.10
42037;DHT22;30340;52.004;5.908;2023-03-13T07:53:42;13.70;92.00
42037;DHT22;30340;52.004;5.908;2023-03-13T07:56:11;13.80;92.00
42037;DHT22;30340;52.004;5.908;2023-03-13T07:58:38;13.80;91.90
42037;DHT22;30340;52.004;5.908;2023-03-13T08:01:07;13.80;91.90
42037;DHT22;30340;52.004;5.908;2023-03-13T08:03:33;13.80;91.90
42037;DHT22;30340;52.004;5.908;2023-03-13T08:06:06;13.70;91.80
42037;DHT22;30340;52.004;5.908;2023-03-13T08:08:32;13.70;91.90
42037;DHT22;30340;52.004;5.908;2023-03-13T08:13:25;13.70;91.90
42037;DHT22;30340;52.004;5.908;2023-03-13T08:15:51;13.70;92.00
42037;DHT22;30340;52.004;5.908;2023-03-13T08:18:16;13.70;92.00
42037;DHT22;30340;52.004;5.908;2023-03-13T08:20:42;13.70;92.00
42037;DHT22;30340;52.004;5.908;2023-03-13T08:23:07;13.60;92.10
42037;DHT22;30340;52.004;5.908;2023-03-13T08:25:33;13.60;92.10
42037;DHT22;30340;52.004;5.908;2023-03-13T08:27:58;13.70;92.20
42037;DHT22;30340;52.004;5.908;2023-03-13T08:30:24;13.70;92.20
42037;DHT22;30340;52.004;5.908;2023-03-13T08:32:49;13.70;92.20
42037;DHT22;30340;52.004;5.908;2023-03-13T08:35:15;13.80;92.10
42037;DHT22;30340;52.004;5.908;2023-03-13T08:37:40;13.90;92.10
42037;DHT22;30340;52.004;5.908;2023-03-13T08:40:06;13.90;92.00
42037;DHT22;30340;52.004;5.908;2023-03-13T08:42:36;13.90;92.00
42037;DHT22;30340;52.004;5.908;2023-03-13T08:45:08;13.90;91.90
42037;DHT22;30340;52.004;5.908;2023-03-13T08:47:33;14.00;91.90
42037;DHT22;30340;52.004;5.908;2023-03-13T08:49:59;14.00;91.90
42037;DHT22;30340;52.004;5.908;2023-03-13T08:52:25;13.90;91.90
42037;DHT22;30340;52.004;5.908;2023-03-13T08:54:50;13.90;91.90
42037;DHT22;30340;52.004;5.908;2023-03-13T08:57:16;13.90;91.90
42037;DHT22;30340;52.004;5.908;2023-03-13T08:59:42;13.90;91.90
42037;DHT22;30340;52.004;5.908;2023-03-13T09:02:08;13.90;92.00
42037;DHT22;30340;52.004;5.908;2023-03-13T09:04:33;14.00;92.00
42037;DHT22;30340;52.004;5.908;2023-03-13T09:06:59;14.00;92.00
42037;DHT22;30340;52.004;5.908;2023-03-13T09:09:24;14.10;92.00
42037;DHT22;30340;52.004;5.908;2023-03-13T09:11:49;14.20;91.80
42037;DHT22;30340;52.004;5.908;2023-03-13T09:14:15;14.30;91.70
42037;DHT22;30340;52.004;5.908;2023-03-13T09:16:40;14.40;91.50
42037;DHT22;30340;52.004;5.908;2023-03-13T09:19:06;14.50;91.20
42037;DHT22;30340;52.004;5.908;2023-03-13T09:21:32;14.60;91.00
42037;DHT22;30340;52.004;5.908;2023-03-13T09:23:58;14.60;90.80
42037;DHT22;30340;52.004;5.908;2023-03-13T09:26:24;14.60;90.40
42037;DHT22;30340;52.004;5.908;2023-03-13T09:28:50;14.60;90.30
42037;DHT22;30340;52.004;5.908;2023-03-13T09:31:17;14.60;90.20
42037;DHT22;30340;52.004;5.908;2023-03-13T09:33:43;14.60;90.10
42037;DHT22;30340;52.004;5.908;2023-03-13T09:36:09;14.70;90.00
42037;DHT22;30340;52.004;5.908;2023-03-13T09:38:35;14.70;89.40
42037;DHT22;30340;52.004;5.908;2023-03-13T09:49:31;14.90;88.60
42037;DHT22;30340;52.004;5.908;2023-03-13T09:52:00;14.90;88.20
42037;DHT22;30340;52.004;5.908;2023-03-13T09:54:27;15.00;88.10
42037;DHT22;30340;52.004;5.908;2023-03-13T09:57:11;15.00;87.80
42037;DHT22;30340;52.004;5.908;2023-03-13T10:02:15;15.10;87.80
42037;DHT22;30340;52.004;5.908;2023-03-13T10:04:45;15.10;87.70
42037;DHT22;30340;52.004;5.908;2023-03-13T10:07:12;15.10;87.50
42037;DHT22;30340;52.004;5.908;2023-03-13T10:09:37;15.10;87.30
42037;DHT22;30340;52.004;5.908;2023-03-13T10:12:12;15.10;87.30
42037;DHT22;30340;52.004;5.908;2023-03-13T10:19:57;15.30;86.90
42037;DHT22;30340;52.004;5.908;2023-03-13T10:22:25;15.30;86.90
42037;DHT22;30340;52.004;5.908;2023-03-13T10:24:57;15.30;86.50
42037;DHT22;30340;52.004;5.908;2023-03-13T10:27:24;15.30;85.50
42037;DHT22;30340;52.004;5.908;2023-03-13T10:29:49;15.30;85.40
42037;DHT22;30340;52.004;5.908;2023-03-13T10:32:15;15.40;85.40
42037;DHT22;30340;52.004;5.908;2023-03-13T10:34:57;15.50;85.10
42037;DHT22;30340;52.004;5.908;2023-03-13T10:37:26;15.50;85.50
42037;DHT22;30340;52.004;5.908;2023-03-13T10:39:53;15.50;84.60
42037;DHT22;30340;52.004;5.908;2023-03-13T10:42:28;15.60;83.70
42037;DHT22;30340;52.004;5.908;2023-03-13T10:44:57;15.60;83.30
42037;DHT22;30340;52.004;5.908;2023-03-13T10:47:23;15.70;83.60
42037;DHT22;30340;52.004;5.908;2023-03-13T10:49:49;15.80;83.10
42037;DHT22;30340;52.004;5.908;2023-03-13T10:52:27;15.90;83.20
42037;DHT22;30340;52.004;5.908;2023-03-13T10:54:55;15.90;82.70
42037;DHT22;30340;52.004;5.908;2023-03-13T10:59:49;15.90;81.80
42037;DHT22;30340;52.004;5.908;2023-03-13T11:02:36;16.00;81.80
42037;DHT22;30340;52.004;5.908;2023-03-13T11:05:02;16.10;81.30
42037;DHT22;30340;52.004;5.908;2023-03-13T11:07:29;16.10;81.20
42037;DHT22;30340;52.004;5.908;2023-03-13T11:10:00;16.20;81.00
42037;DHT22;30340;52.004;5.908;2023-03-13T11:12:26;16.20;80.60
42037;DHT22;30340;52.004;5.908;2023-03-13T11:14:58;16.30;80.30
42037;DHT22;30340;52.004;5.908;2023-03-13T11:20:13;16.40;79.60
42037;DHT22;30340;52.004;5.908;2023-03-13T11:22:46;16.40;79.50
42037;DHT22;30340;52.004;5.908;2023-03-13T11:25:16;16.50;79.10
42037;DHT22;30340;52.004;5.908;2023-03-13T11:33:16;16.80;78.50
42037;DHT22;30340;52.004;5.908;2023-03-13T11:38:12;16.90;78.20
42037;DHT22;30340;52.004;5.908;2023-03-13T11:41:30;17.00;77.90
42037;DHT22;30340;52.004;5.908;2023-03-13T11:43:35;17.00;77.80
42037;DHT22;30340;52.004;5.908;2023-03-13T11:51:35;17.20;76.30
42037;DHT22;30340;52.004;5.908;2023-03-13T11:54:06;17.20;75.80
42037;DHT22;30340;52.004;5.908;2023-03-13T11:56:42;17.30;75.80
42037;DHT22;30340;52.004;5.908;2023-03-13T12:01:48;17.30;75.30
42037;DHT22;30340;52.004;5.908;2023-03-13T12:04:17;17.30;74.30
42037;DHT22;30340;52.004;5.908;2023-03-13T12:06:55;17.30;74.40
42037;DHT22;30340;52.004;5.908;2023-03-13T12:09:27;17.40;74.80
42037;DHT22;30340;52.004;5.908;2023-03-13T12:11:56;17.50;74.90
42037;DHT22;30340;52.004;5.908;2023-03-13T12:17:30;17.50;74.60
42037;DHT22;30340;52.004;5.908;2023-03-13T12:19:57;17.50;74.90
42037;DHT22;30340;52.004;5.908;2023-03-13T12:25:20;17.60;75.00
42037;DHT22;30340;52.004;5.908;2023-03-13T12:27:53;17.60;74.20
42037;DHT22;30340;52.004;5.908;2023-03-13T12:35:18;17.80;73.40
42037;DHT22;30340;52.004;5.908;2023-03-13T12:37:52;17.70;73.00
42037;DHT22;30340;52.004;5.908;2023-03-13T12:40:24;17.60;72.70
42037;DHT22;30340;52.004;5.908;2023-03-13T12:42:54;17.60;72.40
42037;DHT22;30340;52.004;5.908;2023-03-13T12:45:20;17.60;72.20
42037;DHT22;30340;52.004;5.908;2023-03-13T12:50:26;17.50;72.10
42037;DHT22;30340;52.004;5.908;2023-03-13T12:58:08;17.50;72.10
42037;DHT22;30340;52.004;5.908;2023-03-13T13:00:35;17.70;72.00
42037;DHT22;30340;52.004;5.908;2023-03-13T13:05:27;17.90;70.80
42037;DHT22;30340;52.004;5.908;2023-03-13T13:07:53;18.00;71.10
42037;DHT22;30340;52.004;5.908;2023-03-13T13:10:20;18.20;71.00
42037;DHT22;30340;52.004;5.908;2023-03-13T13:13:16;18.30;70.20
42037;DHT22;30340;52.004;5.908;2023-03-13T13:15:32;18.50;69.60
42037;DHT22;30340;52.004;5.908;2023-03-13T13:17:59;18.50;69.50
42037;DHT22;30340;52.004;5.908;2023-03-13T13:22:52;18.50;68.80
42037;DHT22;30340;52.004;5.908;2023-03-13T13:25:28;18.60;69.00
42037;DHT22;30340;52.004;5.908;2023-03-13T13:27:54;18.60;69.20
42037;DHT22;30340;52.004;5.908;2023-03-13T13:32:50;18.70;68.10
42037;DHT22;30340;52.004;5.908;2023-03-13T13:37:47;18.70;66.20
42037;DHT22;30340;52.004;5.908;2023-03-13T13:40:26;18.60;65.50
42037;DHT22;30340;52.004;5.908;2023-03-13T13:42:56;18.50;66.30
42037;DHT22;30340;52.004;5.908;2023-03-13T13:45:29;18.50;66.20
42037;DHT22;30340;52.004;5.908;2023-03-13T13:51:03;18.60;64.60
42037;DHT22;30340;52.004;5.908;2023-03-13T13:55:53;18.60;63.30
42037;DHT22;30340;52.004;5.908;2023-03-13T13:58:29;18.70;63.70
42037;DHT22;30340;52.004;5.908;2023-03-13T14:01:04;18.80;64.30
42037;DHT22;30340;52.004;5.908;2023-03-13T14:03:37;19.00;63.40
42037;DHT22;30340;52.004;5.908;2023-03-13T14:06:16;19.00;62.40
42037;DHT22;30340;52.004;5.908;2023-03-13T14:08:43;19.10;62.10
42037;DHT22;30340;52.004;5.908;2023-03-13T14:13:38;19.10;61.80
42037;DHT22;30340;52.004;5.908;2023-03-13T14:18:45;19.00;61.80
42037;DHT22;30340;52.004;5.908;2023-03-13T14:21:10;19.10;62.50
42037;DHT22;30340;52.004;5.908;2023-03-13T14:23:40;19.00;61.50
42037;DHT22;30340;52.004;5.908;2023-03-13T14:28:52;18.90;61.20
42037;DHT22;30340;52.004;5.908;2023-03-13T14:31:25;18.90;61.20
42037;DHT22;30340;52.004;5.908;2023-03-13T14:33:51;18.90;61.60
42037;DHT22;30340;52.004;5.908;2023-03-13T14:36:17;18.90;62.00
42037;DHT22;30340;52.004;5.908;2023-03-13T14:38:50;19.00;62.10
42037;DHT22;30340;52.004;5.908;2023-03-13T14:41:21;19.00;62.30
42037;DHT22;30340;52.004;5.908;2023-03-13T14:43:47;19.00;62.10
42037;DHT22;30340;52.004;5.908;2023-03-13T14:46:14;19.10;62.50
42037;DHT22;30340;52.004;5.908;2023-03-13T14:48:43;19.10;62.50
42037;DHT22;30340;52.004;5.908;2023-03-13T14:51:19;19.20;62.20
42037;DHT22;30340;52.004;5.908;2023-03-13T14:53:56;19.00;62.40
42037;DHT22;30340;52.004;5.908;2023-03-13T14:56:29;19.00;62.30
42037;DHT22;30340;52.004;5.908;2023-03-13T14:59:04;19.10;63.10
42037;DHT22;30340;52.004;5.908;2023-03-13T15:01:30;19.20;63.20
42037;DHT22;30340;52.004;5.908;2023-03-13T15:03:55;19.30;62.90
42037;DHT22;30340;52.004;5.908;2023-03-13T15:06:21;19.20;63.30
42037;DHT22;30340;52.004;5.908;2023-03-13T15:08:49;19.10;63.40
42037;DHT22;30340;52.004;5.908;2023-03-13T15:11:32;19.00;63.00
42037;DHT22;30340;52.004;5.908;2023-03-13T15:13:59;18.90;63.10
42037;DHT22;30340;52.004;5.908;2023-03-13T15:16:25;18.80;63.60
42037;DHT22;30340;52.004;5.908;2023-03-13T15:18:51;18.80;64.10
42037;DHT22;30340;52.004;5.908;2023-03-13T15:21:21;18.70;63.40
42037;DHT22;30340;52.004;5.908;2023-03-13T15:23:54;18.70;63.70
42037;DHT22;30340;52.004;5.908;2023-03-13T15:26:21;18.60;63.50
42037;DHT22;30340;52.004;5.908;2023-03-13T15:28:47;18.50;64.00
42037;DHT22;30340;52.004;5.908;2023-03-13T15:31:13;18.40;64.30
42037;DHT22;30340;52.004;5.908;2023-03-13T15:33:39;18.40;64.30
42037;DHT22;30340;52.004;5.908;2023-03-13T15:36:05;18.30;64.00
42037;DHT22;30340;52.004;5.908;2023-03-13T15:38:31;18.20;62.80
42037;DHT22;30340;52.004;5.908;2023-03-13T15:40:56;18.00;63.50
42037;DHT22;30340;52.004;5.908;2023-03-13T15:43:22;17.90;63.50
42037;DHT22;30340;52.004;5.908;2023-03-13T15:45:48;17.80;63.60
42037;DHT22;30340;52.004;5.908;2023-03-13T15:48:20;17.80;64.10
42037;DHT22;30340;52.004;5.908;2023-03-13T15:50:51;17.70;64.20
42037;DHT22;30340;52.004;5.908;2023-03-13T15:55:43;17.70;64.70
42037;DHT22;30340;52.004;5.908;2023-03-13T15:58:10;17.70;64.80
42037;DHT22;30340;52.004;5.908;2023-03-13T16:00:35;17.60;65.00
42037;DHT22;30340;52.004;5.908;2023-03-13T16:03:01;17.60;65.10
42037;DHT22;30340;52.004;5.908;2023-03-13T16:05:26;17.50;65.00
42037;DHT22;30340;52.004;5.908;2023-03-13T16:07:53;17.50;65.10
42037;DHT22;30340;52.004;5.908;2023-03-13T16:10:23;17.40;64.80
42037;DHT22;30340;52.004;5.908;2023-03-13T16:12:49;17.40;65.40
42037;DHT22;30340;52.004;5.908;2023-03-13T16:15:14;17.40;65.50
42037;DHT22;30340;52.004;5.908;2023-03-13T16:17:40;17.30;65.60
42037;DHT22;30340;52.004;5.908;2023-03-13T16:20:15;17.30;65.50
42037;DHT22;30340;52.004;5.908;2023-03-13T16:22:41;17.20;66.00
42037;DHT22;30340;52.004;5.908;2023-03-13T16:25:07;17.20;66.20
42037;DHT22;30340;52.004;5.908;2023-03-13T16:27:33;17.10;65.90
42037;DHT22;30340;52.004;5.908;2023-03-13T16:29:58;17.10;66.30
42037;DHT22;30340;52.004;5.908;2023-03-13T16:32:26;17.10;66.00
42037;DHT22;30340;52.004;5.908;2023-03-13T16:34:51;17.00;66.40
42037;DHT22;30340;52.004;5.908;2023-03-13T16:37:17;17.00;66.80
42037;DHT22;30340;52.004;5.908;2023-03-13T16:39:43;17.00;66.90
42037;DHT22;30340;52.004;5.908;2023-03-13T16:42:09;17.00;67.20
42037;DHT22;30340;52.004;5.908;2023-03-13T16:44:35;16.90;67.10
42037;DHT22;30340;52.004;5.908;2023-03-13T16:47:00;16.80;67.50
42037;DHT22;30340;52.004;5.908;2023-03-13T16:49:26;16.70;67.70
42037;DHT22;30340;52.004;5.908;2023-03-13T16:51:51;16.70;68.00
42037;DHT22;30340;52.004;5.908;2023-03-13T16:54:17;16.70;68.20
42037;DHT22;30340;52.004;5.908;2023-03-13T16:56:42;16.60;68.30
42037;DHT22;30340;52.004;5.908;2023-03-13T16:59:12;16.50;68.60
42037;DHT22;30340;52.004;5.908;2023-03-13T17:01:38;16.50;68.90